Time;durP1;ratioP1;P1;durP2;ratioP2;P2;SDS_P1;SDS_P2;PMS_P1;PMS_P2;Temp;Humidity;BMP_temperature;BMP_pressure;BME280_temperature;BME280_humidity;BME280_pressure;Samples;Min_cycle;Max_cycle;Signal;HPM_P1;HPM_P2
2024/04/12 00:02:08;;;;;;;4.40;1.60;;;;;;;12.62;71.40;100633.44;107122;1251;72255;-58
2024/04/12 00:04:37;;;;;;;2.50;1.60;;;;;;;12.61;71.85;100628.56;107152;1251;59881;-58
2024/04/12 00:07:13;;;;;;;3.70;1.60;;;;;;;12.56;73.12;100632.80;107438;1251;59614;-58
2024/04/12 00:09:44;;;;;;;4.30;1.70;;;;;;;12.46;73.98;100629.80;107172;1251;75308;-59
2024/04/12 00:12:11;;;;;;;3.80;1.40;;;;;;;12.47;74.33;100629.41;107319;1256;69624;-58
2024/04/12 00:14:43;;;;;;;3.30;1.50;;;;;;;12.45;74.42;100625.96;107371;1254;72882;-58
2024/04/12 00:17:16;;;;;;;2.90;1.40;;;;;;;12.51;74.89;100630.31;107001;1251;61353;-58
2024/04/12 00:19:45;;;;;;;4.10;1.60;;;;;;;12.61;73.67;100625.41;107230;1251;61371;-59
2024/04/12 00:22:14;;;;;;;3.10;1.50;;;;;;;12.42;74.77;100625.70;107415;1254;73828;-58
2024/04/12 00:24:41;;;;;;;3.00;1.60;;;;;;;12.43;74.58;100623.94;107456;1251;69048;-58
2024/04/12 00:27:09;;;;;;;2.40;1.60;;;;;;;12.33;75.30;100626.20;107207;1251;72461;-58
2024/04/12 00:29:37;;;;;;;5.50;2.00;;;;;;;12.43;75.27;100627.77;107119;1251;61263;-58
2024/04/12 00:32:18;;;;;;;4.10;1.40;;;;;;;12.68;73.42;100625.87;107391;1251;61248;-58
2024/04/12 00:34:51;;;;;;;7.80;1.80;;;;;;;12.34;74.75;100623.35;107650;1251;75245;-58
2024/04/12 00:37:23;;;;;;;3.40;1.50;;;;;;;12.28;75.78;100624.79;107405;1251;69731;-58
2024/04/12 00:39:53;;;;;;;5.40;2.00;;;;;;;12.28;76.29;100623.36;106877;1254;72928;-58
2024/04/12 00:42:33;;;;;;;3.80;1.50;;;;;;;12.18;76.88;100625.30;107023;1251;61272;-58
2024/04/12 00:45:11;;;;;;;3.50;1.90;;;;;;;12.11;77.95;100629.73;107136;1251;61372;-58
2024/04/12 00:47:41;;;;;;;2.90;1.70;;;;;;;12.25;77.67;100626.65;106881;1254;75341;-57
2024/04/12 00:50:15;;;;;;;5.20;2.10;;;;;;;12.31;77.37;100623.64;107217;1254;69089;-57
2024/04/12 00:52:43;;;;;;;8.40;2.10;;;;;;;12.50;73.16;100622.44;107176;1254;72937;-57
2024/04/12 00:55:13;;;;;;;4.00;1.60;;;;;;;12.07;76.46;100623.39;106829;1253;61367;-57
2024/04/12 00:57:40;;;;;;;2.90;1.90;;;;;;;12.52;74.58;100620.27;107185;1256;61266;-57
2024/04/12 01:00:10;;;;;;;4.70;1.80;;;;;;;11.99;78.19;100623.11;107495;1251;75387;-57
2024/04/12 01:02:39;;;;;;;4.60;1.60;;;;;;;11.91;79.99;100620.76;107505;1254;69537;-58
2024/04/12 01:05:11;;;;;;;5.10;1.60;;;;;;;11.99;79.38;100621.52;107417;1251;74970;-58
2024/04/12 01:07:48;;;;;;;3.80;1.70;;;;;;;11.87;80.37;100618.05;107118;1251;60347;-58
2024/04/12 01:10:21;;;;;;;5.80;2.30;;;;;;;11.82;81.13;100614.33;107348;1251;61333;-57
2024/04/12 01:12:54;;;;;;;4.10;2.10;;;;;;;11.80;81.89;100611.23;106858;1254;75299;-57
2024/04/12 01:15:23;;;;;;;5.30;2.10;;;;;;;11.90;82.11;100616.20;106998;1251;69596;-59
2024/04/12 01:17:56;;;;;;;4.40;1.60;;;;;;;11.75;82.38;100613.16;106930;1257;72356;-58
2024/04/12 01:20:25;;;;;;;3.90;1.70;;;;;;;11.94;82.29;100616.22;106979;1254;61262;-59
2024/04/12 01:22:58;;;;;;;3.30;1.90;;;;;;;11.89;79.79;100613.06;107336;1251;60380;-58
2024/04/12 01:25:26;;;;;;;3.90;2.10;;;;;;;11.91;81.08;100619.67;106743;1254;74388;-58
2024/04/12 01:27:55;;;;;;;6.50;2.20;;;;;;;11.65;82.82;100620.32;106940;1251;69143;-58
2024/04/12 01:30:29;;;;;;;2.80;2.10;;;;;;;11.54;85.26;100616.80;106739;1254;72500;-58
2024/04/12 01:32:57;;;;;;;3.10;2.10;;;;;;;11.54;85.61;100618.04;106815;1251;61150;-57
2024/04/12 01:35:26;;;;;;;4.30;2.10;;;;;;;11.56;86.19;100614.97;107124;1251;61343;-58
2024/04/12 01:37:53;;;;;;;3.10;1.70;;;;;;;11.63;85.42;100609.69;107278;1251;75597;-57
2024/04/12 01:40:23;;;;;;;3.20;2.20;;;;;;;11.62;84.96;100611.63;107076;1251;69409;-57
2024/04/12 01:42:51;;;;;;;2.60;1.80;;;;;;;11.48;86.61;100602.41;107485;1252;73050;-58
2024/04/12 01:45:26;;;;;;;4.10;1.90;;;;;;;11.75;82.83;100612.44;106942;1252;62560;-58
2024/04/12 01:47:55;;;;;;;4.40;2.50;;;;;;;11.51;85.97;100611.10;107422;1254;61154;-54
2024/04/12 01:50:22;;;;;;;;;;;;;;;11.71;84.01;100611.34;106820;1254;74830;-58
2024/04/12 01:52:53;;;;;;;4.20;2.30;;;;;;;11.55;83.00;100608.88;107479;1252;69704;-59
2024/04/12 01:55:24;;;;;;;5.90;2.50;;;;;;;11.53;84.86;100606.66;106797;1251;72493;-59
2024/04/12 01:57:53;;;;;;;4.40;2.00;;;;;;;11.78;81.69;100603.21;107004;1254;61358;-59
2024/04/12 02:00:23;;;;;;;6.40;2.50;;;;;;;11.39;84.33;100606.23;107008;1251;61340;-58
2024/04/12 02:02:53;;;;;;;7.90;2.20;;;;;;;11.35;85.62;100609.31;107096;1255;74402;-58
2024/04/12 02:05:34;;;;;;;3.80;2.00;;;;;;;11.45;85.26;100605.66;107060;1251;69282;-59
2024/04/12 02:08:07;;;;;;;4.10;2.10;;;;;;;11.30;85.67;100603.84;107174;1254;72916;-59
2024/04/12 02:10:41;;;;;;;6.40;1.90;;;;;;;11.25;86.62;100601.02;107026;1254;61595;-59
2024/04/12 02:13:20;;;;;;;4.70;1.90;;;;;;;11.23;87.56;100605.63;107018;1254;61336;-58
2024/04/12 02:15:51;;;;;;;6.20;2.00;;;;;;;11.23;87.20;100605.82;106763;1251;74819;-59
2024/04/12 02:18:20;;;;;;;4.60;2.30;;;;;;;11.20;87.58;100606.80;107035;1254;69430;-59
2024/04/12 02:20:51;;;;;;;5.30;2.60;;;;;;;11.17;88.02;100603.71;106945;1251;72628;-59
2024/04/12 02:23:19;;;;;;;5.10;2.30;;;;;;;11.16;87.88;100604.80;107275;1251;60169;-59
2024/04/12 02:25:49;;;;;;;;;;;;;;;11.24;88.05;100611.93;106848;1251;61464;-59
2024/04/12 02:28:16;;;;;;;5.80;2.20;;;;;;;11.14;87.60;100613.10;107114;1251;74406;-59
2024/04/12 02:30:46;;;;;;;5.70;2.20;;;;;;;11.08;88.34;100611.70;106910;1251;70255;-58
2024/04/12 02:33:18;;;;;;;6.20;2.40;;;;;;;11.03;88.87;100614.14;106945;1251;73000;-59
2024/04/12 02:35:46;;;;;;;3.00;2.00;;;;;;;10.99;90.18;100615.13;107265;1253;61352;-59
2024/04/12 02:38:20;;;;;;;3.50;2.10;;;;;;;10.96;90.42;100616.27;107033;1251;60083;-59
2024/04/12 02:40:48;;;;;;;7.30;2.40;;;;;;;10.94;90.80;100615.63;107214;1252;74525;-59
2024/04/12 02:43:16;;;;;;;6.70;2.30;;;;;;;10.90;91.66;100618.01;107158;1254;69227;-62
2024/04/12 02:45:57;;;;;;;3.80;2.20;;;;;;;11.09;90.56;100619.58;107128;1253;72473;-58
2024/04/12 02:48:24;;;;;;;3.70;2.20;;;;;;;10.88;91.43;100622.46;107156;1251;60024;-59
2024/04/12 02:50:56;;;;;;;4.50;2.50;;;;;;;10.84;92.13;100621.49;106851;1251;61410;-60
2024/04/12 02:53:24;;;;;;;4.70;2.20;;;;;;;10.83;92.71;100623.84;107002;1251;74857;-58
2024/04/12 02:56:02;;;;;;;5.00;2.00;;;;;;;10.81;93.76;100623.17;106819;1254;68435;-59
2024/04/12 02:58:38;;;;;;;9.80;2.60;;;;;;;10.78;94.23;100625.36;107453;1251;73391;-59
2024/04/12 03:01:24;;;;;;;5.30;2.30;;;;;;;10.76;94.28;100630.00;107484;1254;59746;-60
2024/04/12 03:03:55;;;;;;;3.80;2.90;;;;;;;10.75;94.70;100630.19;107024;1251;60838;-59
2024/04/12 03:06:31;;;;;;;4.30;2.40;;;;;;;10.71;94.95;100634.84;106956;1251;75245;-59
2024/04/12 03:09:05;;;;;;;4.60;2.50;;;;;;;10.69;95.09;100636.13;107005;1251;69859;-58
2024/04/12 03:11:36;;;;;;;5.00;2.10;;;;;;;10.68;95.68;100633.36;106322;1251;72928;-57
2024/04/12 03:14:12;;;;;;;4.40;2.40;;;;;;;10.66;95.43;100633.92;107082;1251;61318;-58
2024/04/12 03:16:41;;;;;;;5.80;2.20;;;;;;;10.65;95.87;100635.89;108452;1251;60101;-58
2024/04/12 03:19:10;;;;;;;8.60;2.80;;;;;;;10.63;96.41;100634.55;108506;1251;73813;-58
2024/04/12 03:21:40;;;;;;;7.10;3.00;;;;;;;10.60;97.13;100641.29;108482;1251;70060;-59
2024/04/12 03:24:09;;;;;;;3.90;2.80;;;;;;;10.58;97.31;100640.46;108454;1253;72529;-58
2024/04/12 03:26:36;;;;;;;4.70;2.20;;;;;;;10.56;97.52;100638.23;108441;1252;59765;-59
2024/04/12 03:29:05;;;;;;;5.90;2.80;;;;;;;10.55;97.92;100636.68;108458;1251;59605;-58
2024/04/12 03:31:34;;;;;;;3.80;2.70;;;;;;;11.07;92.47;100635.42;108441;1251;74471;-58
2024/04/12 03:34:06;;;;;;;9.80;3.10;;;;;;;10.62;96.72;100636.51;108339;1253;70326;-58
2024/04/12 03:41:51;;;;;;;4.00;2.00;;;;;;;10.78;95.92;100636.41;108434;1251;59683;-59
2024/04/12 03:44:19;;;;;;;4.30;2.50;;;;;;;10.57;97.90;100634.90;108432;1253;74936;-58
2024/04/12 03:46:50;;;;;;;2.70;2.20;;;;;;;10.64;97.24;100637.17;108470;1251;69230;-58
2024/04/12 03:49:20;;;;;;;6.10;1.90;;;;;;;10.66;97.41;100637.25;108487;1251;72230;-58
2024/04/12 03:51:49;;;;;;;5.00;2.30;;;;;;;10.64;97.49;100633.45;108273;1251;59961;-59
2024/04/12 03:54:21;;;;;;;5.00;1.90;;;;;;;10.66;98.12;100635.33;108489;1251;59822;-58
2024/04/12 03:56:49;;;;;;;6.10;2.60;;;;;;;10.67;97.34;100638.28;108451;1251;74925;-59
2024/04/12 03:59:21;;;;;;;6.90;2.80;;;;;;;10.67;98.26;100644.08;108454;1251;68078;-58
2024/04/12 04:01:54;;;;;;;7.60;2.20;;;;;;;10.67;98.41;100644.60;108395;1253;72332;-60
2024/04/12 04:07:30;;;;;;;5.60;2.40;;;;;;;10.44;100.00;100648.02;103686;1292;600777;-58
2024/04/12 04:09:59;;;;;;;6.30;2.50;;;;;;;10.70;100.00;100651.53;105680;1266;59909;-58
2024/04/12 04:12:28;;;;;;;2.90;2.40;;;;;;;10.75;99.92;100652.80;105730;1266;59746;-58
2024/04/12 04:14:55;;;;;;;5.40;2.70;;;;;;;10.82;99.57;100654.20;105887;1263;72321;-62
2024/04/12 04:17:29;;;;;;;6.60;2.40;;;;;;;10.86;99.69;100656.01;106303;1262;70290;-58
2024/04/12 04:20:05;;;;;;;4.70;2.60;;;;;;;10.85;99.30;100655.50;105857;1263;429813;-58
2024/04/12 04:25:01;;;;;;;7.40;2.30;;;;;;;10.85;99.55;100654.11;106276;1259;59643;-58
2024/04/12 04:27:30;;;;;;;3.10;2.10;;;;;;;10.85;99.95;100657.60;106149;1262;72793;-57
2024/04/12 04:30:00;;;;;;;9.80;2.70;;;;;;;10.89;100.00;100657.52;106057;1260;70514;-57
2024/04/12 04:32:28;;;;;;;6.90;2.80;;;;;;;10.90;100.00;100657.80;106178;1261;72394;-58
2024/04/12 04:35:04;;;;;;;6.40;2.80;;;;;;;10.94;100.00;100657.89;106217;1261;60968;-54
2024/04/12 04:37:37;;;;;;;7.50;2.80;;;;;;;11.02;100.00;100656.98;106422;1260;60467;-55
2024/04/12 04:40:28;;;;;;;3.50;3.00;;;;;;;11.07;100.00;100657.36;106331;1262;73707;-55
2024/04/12 04:42:55;;;;;;;11.10;4.80;;;;;;;11.14;100.00;100660.50;106076;1262;68193;-55
2024/04/12 04:45:23;;;;;;;7.80;4.80;;;;;;;11.23;100.00;100661.30;107167;1256;72198;-55
2024/04/12 04:47:50;;;;;;;7.90;3.90;;;;;;;11.26;100.00;100663.11;106679;1253;60578;-56
2024/04/12 04:50:20;;;;;;;7.00;4.40;;;;;;;11.28;100.00;100666.20;107233;1251;62612;-56
2024/04/12 04:52:50;;;;;;;6.80;4.10;;;;;;;11.35;100.00;100665.84;107193;1252;73987;-55
2024/04/12 04:55:19;;;;;;;11.80;3.50;;;;;;;11.42;100.00;100670.21;106965;1252;70543;-56
2024/04/12 04:57:54;;;;;;;7.00;3.10;;;;;;;11.69;99.54;100666.73;106954;1253;75221;-55
2024/04/12 05:00:23;;;;;;;5.50;2.90;;;;;;;11.71;97.65;100669.66;107273;1253;59116;-56
2024/04/12 05:02:53;;;;;;;6.90;2.50;;;;;;;11.66;98.75;100669.46;106313;1253;62969;-56
2024/04/12 05:05:26;;;;;;;4.90;2.40;;;;;;;11.70;98.85;100666.88;106523;1251;75875;-55
2024/04/12 05:07:55;;;;;;;5.50;2.70;;;;;;;11.78;98.29;100665.07;106772;1251;69500;-55
2024/04/12 05:10:24;;;;;;;7.00;2.60;;;;;;;11.84;96.77;100669.27;106950;1253;74312;-55
2024/04/12 05:12:53;;;;;;;7.80;2.80;;;;;;;11.90;96.02;100670.67;106458;1252;60566;-55
2024/04/12 05:15:49;;;;;;;10.00;2.80;;;;;;;11.97;95.46;100670.11;106432;1252;61703;-55
2024/04/12 05:18:17;;;;;;;8.00;2.60;;;;;;;12.05;95.13;100673.72;106304;1253;72983;-55
2024/04/12 05:20:47;;;;;;;7.30;2.90;;;;;;;12.11;93.13;100670.73;105888;1253;70081;-55
2024/04/12 05:23:17;;;;;;;5.40;2.70;;;;;;;12.17;92.54;100671.39;106348;1256;72604;-55
2024/04/12 05:25:49;;;;;;;6.20;2.80;;;;;;;12.24;91.75;100672.39;106355;1253;60850;-55
2024/04/12 05:28:19;;;;;;;7.50;2.80;;;;;;;12.32;91.07;100671.75;106581;1253;60556;-55
2024/04/12 05:30:49;;;;;;;7.60;2.70;;;;;;;12.39;90.05;100671.86;106752;1252;76623;-55
2024/04/12 05:33:17;;;;;;;10.20;3.50;;;;;;;12.44;87.87;100674.02;106297;1251;69357;-55
2024/04/12 05:35:45;;;;;;;;;;;;;;;12.50;87.30;100671.88;106947;1253;73684;-55
2024/04/12 05:38:14;;;;;;;6.00;3.20;;;;;;;12.56;85.62;100673.77;106272;1258;60509;-55
2024/04/12 05:40:45;;;;;;;;;;;;;;;12.62;84.51;100672.86;106106;1253;59940;-55
2024/04/12 05:43:13;;;;;;;7.50;3.10;;;;;;;12.67;83.74;100668.98;106244;1253;73652;-55
2024/04/12 05:45:44;;;;;;;8.20;2.50;;;;;;;12.75;83.48;100666.60;106147;1258;70038;-55
2024/04/12 05:48:15;;;;;;;8.30;2.80;;;;;;;12.78;83.18;100667.88;106352;1251;75417;-55
2024/04/12 05:50:48;;;;;;;9.50;2.50;;;;;;;12.86;82.39;100666.73;106329;1253;60421;-55
2024/04/12 05:53:23;;;;;;;8.00;3.00;;;;;;;12.95;81.66;100664.31;106187;1251;60560;-54
2024/04/12 05:56:20;;;;;;;7.40;3.50;;;;;;;13.05;82.71;100668.69;106277;1252;73921;-55
2024/04/12 05:58:41;;;;;;;7.60;2.90;;;;;;;13.15;80.95;100668.86;106402;1253;69247;-55
2024/04/12 06:01:10;;;;;;;9.80;2.80;;;;;;;13.24;80.42;100673.27;106200;1254;72878;-55
2024/04/12 06:03:42;;;;;;;6.00;3.00;;;;;;;13.32;80.05;100673.84;105603;1253;60484;-56
2024/04/12 06:06:13;;;;;;;6.00;3.00;;;;;;;13.41;79.62;100675.45;106202;1258;60829;-56
2024/04/12 06:08:47;;;;;;;9.90;4.10;;;;;;;13.49;78.46;100680.28;106583;1256;73671;-57
2024/04/12 06:11:16;;;;;;;11.60;4.40;;;;;;;13.57;77.65;100680.67;106293;1253;68719;-56
2024/04/12 06:13:52;;;;;;;10.90;5.20;;;;;;;13.64;76.67;100677.73;105603;1256;72597;-56
2024/04/12 06:16:20;;;;;;;9.60;3.90;;;;;;;13.73;76.10;100681.46;105875;1256;60915;-56
2024/04/12 06:18:50;;;;;;;7.80;3.60;;;;;;;13.80;74.09;100677.31;106175;1253;60433;-56
2024/04/12 06:21:18;;;;;;;8.90;2.90;;;;;;;13.89;73.94;100679.42;105696;1269;72625;-56
2024/04/12 06:23:49;;;;;;;9.90;3.30;;;;;;;13.99;73.56;100678.67;106016;1259;69730;-55
2024/04/12 06:26:16;;;;;;;10.70;2.70;;;;;;;14.09;71.93;100679.11;105753;1258;73674;-56
2024/04/12 06:28:44;;;;;;;5.80;2.90;;;;;;;14.20;70.75;100674.47;106257;1256;61431;-56
2024/04/12 06:31:19;;;;;;;6.20;2.60;;;;;;;14.32;69.31;100673.27;105529;1261;59941;-56
2024/04/12 06:33:50;;;;;;;7.80;2.90;;;;;;;14.45;68.11;100677.84;106061;1258;72693;-56
2024/04/12 06:36:18;;;;;;;8.50;3.40;;;;;;;14.85;63.80;100669.96;106291;1254;70491;-56
2024/04/12 06:38:46;;;;;;;7.10;2.40;;;;;;;14.83;62.35;100671.45;105880;1258;72536;-55
2024/04/12 06:41:15;;;;;;;8.50;2.40;;;;;;;14.75;63.18;100671.61;106131;1254;61198;-56
2024/04/12 06:43:43;;;;;;;15.10;3.20;;;;;;;14.89;63.86;100671.20;106155;1255;60572;-56
2024/04/12 06:46:14;;;;;;;;;;;;;;;15.00;61.86;100670.36;106590;1258;73967;-56
2024/04/12 06:48:42;;;;;;;5.20;2.50;;;;;;;15.09;61.75;100671.70;105883;1259;69501;-56
2024/04/12 06:51:13;;;;;;;5.30;2.40;;;;;;;15.19;60.29;100671.06;105938;1258;72848;-56
2024/04/12 06:53:44;;;;;;;7.30;2.90;;;;;;;15.27;58.12;100669.31;105599;1254;60967;-55
2024/04/12 06:56:17;;;;;;;9.40;2.70;;;;;;;15.34;57.89;100667.02;106339;1254;60565;-56
2024/04/12 06:58:48;;;;;;;10.40;2.30;;;;;;;15.45;57.25;100669.55;106503;1253;73115;-56
2024/04/12 07:01:21;;;;;;;14.40;3.30;;;;;;;15.69;55.72;100665.59;105748;1260;69971;-55
2024/04/12 07:03:52;;;;;;;13.10;2.90;;;;;;;15.71;54.48;100664.27;106111;1254;73456;-56
2024/04/12 07:06:20;;;;;;;5.50;2.40;;;;;;;15.77;54.07;100667.16;105922;1255;62689;-56
2024/04/12 07:08:51;;;;;;;9.50;2.60;;;;;;;15.88;53.49;100673.20;105985;1253;60531;-54
2024/04/12 07:11:19;;;;;;;6.60;2.50;;;;;;;16.01;52.66;100669.02;106162;1259;74375;-56
2024/04/12 07:13:49;;;;;;;7.60;2.80;;;;;;;16.09;51.74;100662.96;105860;1259;69580;-55
2024/04/12 07:16:18;;;;;;;6.20;2.80;;;;;;;16.17;51.52;100659.58;105989;1258;72439;-55
2024/04/12 07:18:50;;;;;;;8.30;3.30;;;;;;;16.31;52.06;100664.34;105813;1259;60482;-57
2024/04/12 07:21:22;;;;;;;6.00;2.40;;;;;;;16.48;50.94;100663.66;105528;1258;60576;-57
2024/04/12 07:23:51;;;;;;;10.30;3.00;;;;;;;16.47;50.37;100663.33;106141;1253;75684;-56
2024/04/12 07:26:27;;;;;;;9.50;2.20;;;;;;;16.57;49.88;100666.20;106209;1253;70542;-57
2024/04/12 07:28:59;;;;;;;7.50;2.40;;;;;;;16.68;49.52;100664.05;106507;1254;76120;-57
2024/04/12 07:31:30;;;;;;;4.40;2.30;;;;;;;17.13;48.71;100662.57;106168;1254;60541;-57
2024/04/12 07:34:00;;;;;;;5.10;1.90;;;;;;;17.21;47.69;100659.84;106118;1253;60489;-57
2024/04/12 07:36:30;;;;;;;4.50;2.40;;;;;;;17.11;48.18;100658.11;106268;1253;74520;-55
2024/04/12 07:39:01;;;;;;;8.00;2.70;;;;;;;17.10;47.43;100657.10;106786;1252;72411;-55
2024/04/12 07:41:37;;;;;;;5.30;2.10;;;;;;;17.26;47.16;100653.35;106842;1257;73418;-54
2024/04/12 07:44:05;;;;;;;7.60;3.30;;;;;;;17.74;45.57;100653.22;106587;1258;62594;-55
2024/04/12 07:46:33;;;;;;;9.20;2.40;;;;;;;17.35;46.16;100653.96;106593;1258;60463;-56
2024/04/12 07:49:02;;;;;;;7.60;2.40;;;;;;;17.40;46.69;100646.78;106783;1257;74455;-56
2024/04/12 07:51:39;;;;;;;6.40;2.30;;;;;;;17.49;46.07;100643.41;106256;1253;69617;-56
2024/04/12 07:54:11;;;;;;;5.60;2.20;;;;;;;17.60;45.35;100642.31;106728;1257;72867;-56
2024/04/12 07:56:46;;;;;;;7.50;2.20;;;;;;;17.67;45.19;100636.59;106512;1253;60772;-57
2024/04/12 07:59:13;;;;;;;6.90;2.40;;;;;;;17.71;44.56;100636.17;105973;1254;62758;-55
2024/04/12 08:01:47;;;;;;;;;;;;;;;17.75;43.82;100636.86;106088;1253;74327;-56
2024/04/12 08:04:23;;;;;;;4.40;2.10;;;;;;;17.78;43.76;100632.27;106866;1253;69928;-56
2024/04/12 08:06:55;;;;;;;8.50;1.80;;;;;;;17.85;44.19;100626.16;106257;1257;75000;-56
2024/04/12 08:09:44;;;;;;;9.00;3.10;;;;;;;17.97;43.77;100626.41;106473;1258;60964;-56
2024/04/12 08:12:17;;;;;;;7.60;2.10;;;;;;;18.07;43.72;100632.03;105767;1260;60326;-57
2024/04/12 08:14:52;;;;;;;7.40;2.10;;;;;;;18.24;42.58;100629.44;106637;1254;76251;-56
2024/04/12 08:17:24;;;;;;;6.00;2.50;;;;;;;18.28;42.48;100622.42;106335;1258;69505;-58
2024/04/12 08:19:56;;;;;;;5.60;2.30;;;;;;;18.32;41.14;100622.59;106361;1259;73354;-56
2024/04/12 08:22:27;;;;;;;11.00;2.30;;;;;;;18.37;41.08;100625.43;106725;1254;61357;-56
2024/04/12 08:24:55;;;;;;;6.60;2.20;;;;;;;18.39;40.02;100615.25;106775;1253;60936;-56
2024/04/12 08:27:25;;;;;;;;;;;;;;;18.34;40.53;100613.39;106742;1257;74485;-56
2024/04/12 08:29:57;;;;;;;5.90;2.50;;;;;;;18.36;40.53;100606.52;106443;1253;70515;-56
2024/04/12 08:32:27;;;;;;;15.80;2.60;;;;;;;18.39;40.44;100606.53;105695;1253;72284;-57
2024/04/12 08:35:06;;;;;;;10.10;2.50;;;;;;;18.45;40.70;100608.09;106285;1257;61353;-56
2024/04/12 08:37:37;;;;;;;5.10;2.20;;;;;;;18.57;40.81;100600.84;106515;1258;61225;-57
2024/04/12 08:40:10;;;;;;;11.30;3.00;;;;;;;18.68;40.19;100603.88;106386;1258;75120;-57
2024/04/12 08:42:38;;;;;;;5.10;2.30;;;;;;;18.74;39.30;100596.39;106533;1254;69961;-59
2024/04/12 08:45:13;;;;;;;5.70;1.90;;;;;;;18.78;38.59;100589.08;106287;1256;74187;-56
2024/04/12 08:47:51;;;;;;;4.30;2.20;;;;;;;18.79;38.54;100582.48;106123;1253;61201;-56
2024/04/12 08:50:24;;;;;;;8.40;2.60;;;;;;;18.93;37.58;100584.48;106138;1259;61247;-55
2024/04/12 08:52:53;;;;;;;8.80;2.40;;;;;;;18.99;37.66;100586.16;106282;1258;75260;-56
2024/04/12 08:55:23;;;;;;;5.90;2.20;;;;;;;19.11;37.86;100583.67;106198;1257;70358;-57
2024/04/12 08:58:00;;;;;;;5.80;2.50;;;;;;;19.20;36.83;100579.15;105940;1254;72488;-55
2024/04/12 09:00:32;;;;;;;7.50;2.10;;;;;;;19.22;36.73;100572.83;106319;1253;61465;-56
2024/04/12 09:03:25;;;;;;;4.90;1.90;;;;;;;19.18;37.05;100572.54;107669;1254;61228;-57
2024/04/12 09:05:56;;;;;;;4.30;1.70;;;;;;;19.19;36.21;100566.64;107007;1252;76366;-56
2024/04/12 09:08:28;;;;;;;5.80;2.40;;;;;;;19.23;36.65;100566.20;107024;1254;70298;-56
2024/04/12 09:11:01;;;;;;;4.80;2.00;;;;;;;19.27;36.67;100562.55;107282;1254;73559;-56
2024/04/12 09:13:36;;;;;;;5.90;1.80;;;;;;;19.26;36.54;100559.23;106390;1254;61378;-56
2024/04/12 09:16:09;;;;;;;6.20;2.30;;;;;;;19.30;36.47;100553.27;106159;1258;62056;-55
2024/04/12 09:18:44;;;;;;;10.90;2.10;;;;;;;19.33;36.44;100550.64;106714;1254;74793;-55
2024/04/12 09:21:24;;;;;;;4.10;2.20;;;;;;;19.42;36.78;100541.87;106063;1262;68879;-56
2024/04/12 09:23:56;;;;;;;7.30;2.00;;;;;;;19.56;36.42;100541.44;105817;1259;72783;-56
2024/04/12 09:26:25;;;;;;;4.10;2.20;;;;;;;19.62;36.40;100535.19;105930;1254;61657;-57
2024/04/12 09:29:09;;;;;;;8.50;2.30;;;;;;;19.64;36.13;100540.70;105811;1258;61389;-58
2024/04/12 09:34:35;;;;;;;3.60;1.70;;;;;;;19.67;35.36;100526.33;106203;1259;70258;-56
2024/04/12 09:37:28;;;;;;;6.20;1.90;;;;;;;19.81;35.09;100523.48;106373;1254;72519;-55
2024/04/12 09:43:25;;;;;;;13.40;2.60;;;;;;;19.97;35.16;100514.24;106418;1259;61211;-56
2024/04/12 09:45:45;;;;;;;3.80;1.80;;;;;;;20.12;35.20;100508.52;106024;1254;77633;-56
2024/04/12 10:38:54;;;;;;;4.00;2.00;;;;;;;20.98;32.23;100472.25;106524;1254;61876;-55
2024/04/12 10:41:26;;;;;;;3.90;1.90;;;;;;;20.94;32.17;100460.92;106486;1254;78344;-57
2024/04/12 10:43:55;;;;;;;5.90;1.60;;;;;;;20.93;32.35;100459.20;106878;1254;72198;-56
2024/04/12 10:46:23;;;;;;;6.50;1.60;;;;;;;21.04;32.45;100451.69;106496;1255;74596;-57
2024/04/12 10:48:52;;;;;;;3.70;1.80;;;;;;;21.15;32.17;100451.75;106111;1254;62532;-56
2024/04/12 10:51:20;;;;;;;4.00;1.60;;;;;;;21.22;32.35;100452.29;105978;1253;62292;-58
2024/04/12 10:53:50;;;;;;;4.20;2.00;;;;;;;21.22;31.67;100447.29;106587;1254;78252;-56
2024/04/12 10:56:21;;;;;;;6.20;1.80;;;;;;;21.11;31.84;100445.42;106344;1257;72638;-56
2024/04/12 10:58:52;;;;;;;2.80;1.50;;;;;;;21.20;32.55;100448.85;106170;1253;74859;-56
2024/04/12 11:01:26;;;;;;;6.30;1.90;;;;;;;21.38;32.17;100443.91;105845;1253;62340;-55
2024/04/12 11:03:57;;;;;;;4.00;1.80;;;;;;;21.47;32.10;100436.71;105528;1254;62866;-55
2024/04/12 11:06:32;;;;;;;4.90;2.00;;;;;;;21.55;31.94;100435.58;105087;1257;77991;-56
2024/04/12 11:09:04;;;;;;;5.10;1.90;;;;;;;21.63;32.14;100434.25;105006;1254;73616;-55
2024/04/12 11:11:33;;;;;;;6.10;2.00;;;;;;;21.68;31.80;100424.80;104738;1261;76035;-54
2024/04/12 11:14:03;;;;;;;6.40;2.40;;;;;;;21.67;31.80;100424.85;104912;1255;62027;-57
2024/04/12 11:33:12;;;;;;;4.50;1.90;;;;;;;21.64;31.90;100401.85;104724;1254;75681;-56
2024/04/12 11:35:49;;;;;;;4.90;2.00;;;;;;;21.68;32.24;100390.17;104599;1258;73146;-57
2024/04/12 11:38:17;;;;;;;3.00;1.90;;;;;;;21.77;32.19;100393.02;104918;1258;76062;-56
2024/04/12 11:40:45;;;;;;;8.10;2.00;;;;;;;21.76;32.13;100384.48;104594;1259;61355;-56
2024/04/12 11:43:13;;;;;;;5.20;1.40;;;;;;;21.72;32.21;100384.28;104943;1258;62681;-57
2024/04/12 11:45:41;;;;;;;4.80;1.60;;;;;;;21.70;32.56;100384.82;104767;1258;78013;-55
2024/04/12 11:48:14;;;;;;;2.90;1.50;;;;;;;21.69;32.54;100380.21;105357;1254;71581;-56
2024/04/12 11:50:43;;;;;;;3.70;1.90;;;;;;;21.71;32.75;100383.29;104872;1255;76214;-57
2024/04/12 11:53:11;;;;;;;5.80;1.90;;;;;;;21.68;32.78;100377.68;104859;1258;64304;-55
2024/04/12 11:55:41;;;;;;;;;;;;;;;21.67;33.06;100374.67;105358;1253;63412;-57
2024/04/12 11:58:09;;;;;;;3.30;2.10;;;;;;;21.80;33.24;100373.70;104659;1255;77369;-58
2024/04/12 12:00:40;;;;;;;5.00;2.00;;;;;;;21.96;33.20;100369.08;105127;1254;73636;-55
2024/04/12 12:03:15;;;;;;;4.70;2.30;;;;;;;22.12;33.15;100365.08;104816;1257;76516;-55
2024/04/12 12:05:46;;;;;;;4.90;1.80;;;;;;;22.26;32.95;100358.63;105024;1257;61669;-56
2024/04/12 12:08:14;;;;;;;4.30;1.70;;;;;;;22.34;33.04;100353.55;105608;1254;62267;-56
2024/04/12 12:10:44;;;;;;;5.00;2.10;;;;;;;22.36;33.25;100354.79;105282;1252;78051;-56
2024/04/12 12:13:13;;;;;;;4.30;1.90;;;;;;;22.39;33.25;100360.34;104771;1266;73790;-59
2024/04/12 12:15:44;;;;;;;4.00;1.60;;;;;;;22.43;33.68;100350.70;105902;1257;74835;-55
2024/04/12 12:18:11;;;;;;;6.00;1.90;;;;;;;22.58;33.94;100351.29;105579;1254;65623;-58
2024/04/12 12:20:43;;;;;;;4.00;1.50;;;;;;;22.68;33.63;100341.69;105804;1253;61402;-56
2024/04/12 12:23:13;;;;;;;7.30;1.70;;;;;;;22.70;33.67;100334.92;104572;1257;76886;-56
2024/04/12 12:25:41;;;;;;;;;;;;;;;22.76;33.98;100331.58;105391;1254;73420;-56
2024/04/12 12:28:09;;;;;;;4.80;1.60;;;;;;;22.74;33.88;100330.81;105038;1255;74602;-56
2024/04/12 12:30:36;;;;;;;4.40;1.70;;;;;;;22.67;34.15;100330.00;105344;1254;61528;-55
2024/04/12 12:33:07;;;;;;;2.30;1.60;;;;;;;22.58;34.06;100328.39;104929;1254;61934;-55
2024/04/12 12:35:35;;;;;;;6.30;1.80;;;;;;;22.37;34.57;100324.35;104835;1263;77893;-55
2024/04/12 12:38:03;;;;;;;3.50;1.10;;;;;;;22.30;35.05;100325.10;105497;1254;71337;-55
2024/04/12 12:40:33;;;;;;;3.10;1.30;;;;;;;22.28;35.50;100324.39;105296;1253;75167;-55
2024/04/12 12:43:04;;;;;;;6.60;2.20;;;;;;;22.34;35.35;100319.29;105212;1253;63645;-55
2024/04/12 12:45:34;;;;;;;4.80;1.50;;;;;;;22.38;35.25;100314.82;104822;1257;61646;-55
2024/04/12 12:48:03;;;;;;;5.20;1.60;;;;;;;22.40;35.20;100315.40;104665;1265;78058;-56
2024/04/12 12:50:31;;;;;;;2.00;1.20;;;;;;;22.49;35.40;100310.71;104518;1266;74258;-54
2024/04/12 12:52:59;;;;;;;6.00;1.80;;;;;;;22.65;35.34;100306.50;104866;1253;73871;-54
2024/04/12 12:55:28;;;;;;;3.90;1.30;;;;;;;22.78;35.32;100307.45;105090;1255;62778;-54
2024/04/12 12:58:11;;;;;;;4.20;1.50;;;;;;;22.82;34.82;100304.08;104992;1253;62684;-55
2024/04/12 13:00:43;;;;;;;3.70;1.40;;;;;;;22.83;35.00;100297.77;105612;1254;78038;-55
2024/04/12 13:03:12;;;;;;;4.70;1.30;;;;;;;22.89;34.70;100292.58;105278;1254;71998;-55